Предлагаем Вашему вниманию английскую версию страницы: AUTOTAF.ME 40700 - aviation weather forecast Pars Abad moghan

AUTOTAF 40700 - авиапрогноз Pars Abad Moghan

Сегодня рассвет 03:31 UTC, восход солнца 04:00 UTC,
местный полдень 08:59 UTC, заход солнца 13:59 UTC,
наступление темноты 14:27 UTC.

Краткий прогноз 40700 на 9 часов

AUTOTAF.ME 40700 252000Z 2521/2606 VRB02MPS 1000 BR OVC003      
  FM260600 26003MPS CAVOK

Детальный прогноз 40700 на 24 часа

AUTOTAF.ME 40700 252000Z 2521/2621 VRB02MPS 1000 BR OVC003 TX11/2612Z TNM07/2600Z    
  FM260600 26003MPS 9999 SCT280    
  FM261800 VRB02MPS 0500 FZFG VV002

Подробный табличный прогноз

Время (UTC) miniAUTOTAF на 3 ч WX FZLVL
M AGL
ICE TURB Т
(°С)
Тd
(°С)
f(%) QNH
(гПа)
WIND/T
18 VRB02MPS 1000 BR OVC003 BR 2550 MOD FL170/FL180 -4 -5 91 1023 ...
21 VRB02MPS 1000 BR OVC003 BR 2550 -6 -7 89 1023 ...
26.01.2021
00 VRB02MPS 1000 BR OVC003 BR 2550 -7 -9 88 1022 ...
03 26003MPS 1000 BR OVC003 BR 2550 -7 -9 86 1022 ...
06 26003MPS 9999 SCT280 2550 -2 -6 74 1022 ...
09 29003MPS 9999 BKN200 2550 MOD SFC/FL170 8 -0 55 1021 ...
12 VRB02MPS 9999 OVC186 2550 MOD FL190/FL200 MOD SFC/FL170 11 1 47 1020 ...
15 VRB02MPS 9999 FEW320 2550 MOD FL150/FL160 4 1 79 1022 ...
18 VRB02MPS 0500 FZFG VV002 FZFG 2550 -1 -2 92 1022 ...
21 VRB02MPS 0500 FZFG VV002 FZFG 2550 -4 -5 91 1023 ...
27.01.2021
00 VRB02MPS 0500 FZFG VV002 FZFG 2550 -5 -6 90 1023 ...
03 VRB02MPS 0500 FZFG VV002 FZFG 2700 -6 -8 89 1022 ...
06 VRB02MPS 9999 SKC 2850 -1 -5 75 1022 ...
09 VRB02MPS 9999 SKC 3000 MOD SFC/FL20 8 -0 58 1020 ...
12 VRB02MPS 9999 SKC 3000 MOD SFC/FL30 11 1 50 1017 ...
15 VRB02MPS 9999 FEW320 3300 4 0 78 1018 ...


Широта 39.6°, долгота 48.1°, высота 45 м абс.
Средняя высота рельефа местности 159 м абс.
Прогнозы обновляются четыре раза в сутки: в 02, 08, 14, 20 ч всемирного времени.


Выбрать прогноз по другой модели Pars Abad Moghan
Онлайн-сводка гроз по Pars Abad Moghan (для РФ и ближнего зарубежья)
Карта фактических гроз в окрестностях Pars Abad Moghan
Динамические прогностические карты (ventusky.com)
Прогностическая карта высоты нижней границы облаков по Pars Abad Moghan (windy.com)
Выбрать другой город

Прогноз предназначен для личного научно-познавательного использования частными лицами
и не предназначен для принятия важных решений и выполнения реальных полётов воздушных судов

При копировании или ином использовании любых материалов данного сайта ссылка на © meteocenter.asia обязательна.

0.72/1.1